Latest Weather Observations for Cape Willoughby

IDS60801

Issued at 10:01 am CDT Sunday 7 February 2016 (issued every 30 minutes, with the page automatically refreshed every 10 minutes)

About weather observations | Map of weather stations | Latest weather observations for SA | Other Formats
Station Details ID: 022803 Name: CAPE WILLOUGHBY Lat: -35.84 Lon: 138.13 Height: 55.0 m
Data from the previous 72 hours. | See also: Recent months at Cape Willoughby
Date/Time
CDT
Temp
°C
App
Temp
°C
Dew
Point
Rel
Hum
%
Delta-T
°C
Wind Press
QNH
hPa
Press
MSL
hPa
Rain
since 9 am
mm
Dir
 
Spd
km/h
Gust
km/h
Spd
kts
Gust
kts
07/10:00am 18.4 17.4 15.5 83 1.7 SSE 15 20 8 11 1019.3 1019.2 0.0
07/09:30am 18.2 16.7 15.3 83 1.7 SSE 17 20 9 11 1019.2 1019.1 0.0
07/09:00am 18.2 16.4 15.6 85 1.5 SSE 19 22 10 12 1019.2 1019.1 -
07/08:30am 17.8 15.8 15.4 86 1.4 S 20 26 11 14 1018.9 1018.8 -
07/08:00am 17.8 16.0 15.6 87 1.3 SSE 19 24 10 13 1018.6 1018.5 -
07/07:30am 17.7 15.9 15.5 87 1.3 S 19 24 10 13 1018.2 1018.1 -
07/07:00am 17.4 16.4 15.6 89 1.1 SSE 15 19 8 10 1017.8 1017.7 -
07/06:30am 17.4 16.0 15.6 89 1.1 SSE 17 20 9 11 1017.5 1017.4 -
07/06:00am 17.5 14.7 15.3 87 1.3 S 24 30 13 16 1017.3 1017.2 -
07/05:30am 17.5 14.3 15.3 87 1.3 S 26 32 14 17 1016.8 1016.7 -
07/05:00am 17.7 14.6 15.7 88 1.2 S 26 32 14 17 1016.6 1016.5 -
07/04:30am 17.8 14.8 15.8 88 1.2 S 26 32 14 17 1016.8 1016.7 -
07/04:00am 17.6 15.2 15.4 87 1.3 S 22 28 12 15 1016.6 1016.5 -
07/03:30am 17.8 16.5 15.8 88 1.2 SE 17 26 9 14 1016.4 1016.3 -
07/03:00am 17.8 16.1 15.8 88 1.2 SE 19 28 10 15 1016.3 1016.2 -
07/02:30am 17.8 15.2 15.8 88 1.2 SE 24 30 13 16 1016.4 1016.3 -
07/02:00am 17.7 16.4 15.7 88 1.2 SSE 17 26 9 14 1016.4 1016.3 -
07/01:30am 17.5 15.1 15.3 87 1.3 SSE 22 32 12 17 1016.7 1016.6 -
07/01:00am 17.6 14.5 15.6 88 1.2 S 26 35 14 19 1017.0 1016.9 -
07/12:30am 17.4 14.2 15.4 88 1.2 S 26 33 14 18 1017.1 1017.0 -
07/12:00am 17.4 13.9 15.6 89 1.1 S 28 35 15 19 1017.0 1016.9 -
 
Date/Time
CDT
Temp
°C
App
Temp
°C
Dew
Point
Rel
Hum
%
Delta-T
°C
Wind Press
QNH
hPa
Press
MSL
hPa
Rain
since 9 am
mm
Dir
 
Spd
km/h
Gust
km/h
Spd
kts
Gust
kts
06/11:30pm 17.6 14.2 15.8 89 1.1 S 28 39 15 21 1017.0 1016.9 -
06/11:00pm 17.9 14.7 16.2 90 1.0 S 28 35 15 19 1017.0 1016.9 -
06/10:30pm 17.9 15.0 16.1 89 1.1 S 26 33 14 18 1017.0 1016.9 -
06/10:00pm 17.8 14.9 16.1 90 1.0 S 26 32 14 17 1016.7 1016.6 -
06/09:30pm 17.9 15.0 16.2 90 1.0 S 26 33 14 18 1016.6 1016.5 -
06/09:00pm 17.8 15.7 16.1 90 1.0 S 22 30 12 16 1016.3 1016.2 0.0
06/08:30pm 17.9 15.8 16.1 89 1.1 S 22 30 12 16 1016.1 1016.0 0.0
06/08:00pm 18.1 15.7 16.3 89 1.1 S 24 30 13 16 1015.9 1015.8 0.0
06/07:30pm 18.1 15.7 16.3 89 1.1 S 24 32 13 17 1015.5 1015.4 0.0
06/07:00pm 18.1 14.8 16.1 88 1.2 S 28 35 15 19 1015.4 1015.3 0.0
06/06:30pm 18.2 15.3 16.2 88 1.2 S 26 33 14 18 1015.2 1015.1 0.0
06/06:00pm 18.3 15.1 16.3 88 1.2 S 28 37 15 20 1015.1 1015.0 0.0
06/05:30pm 18.1 14.7 15.9 87 1.3 S 28 39 15 21 1015.1 1015.0 0.0
06/05:00pm 18.4 15.2 16.2 87 1.3 S 28 35 15 19 1015.0 1014.9 0.0
06/04:30pm 18.4 15.5 16.2 87 1.3 S 26 35 14 19 1015.0 1014.9 0.0
06/04:00pm 18.8 16.4 16.4 86 1.4 S 24 33 13 18 1015.2 1015.1 0.0
06/03:30pm 18.9 17.3 16.5 86 1.4 S 20 30 11 16 1015.3 1015.2 0.0
06/03:00pm 19.0 17.4 16.4 85 1.6 S 20 30 11 16 1015.5 1015.4 0.0
06/02:30pm 18.8 16.7 16.2 85 1.6 S 22 30 12 16 1015.5 1015.4 0.0
06/02:00pm 19.0 17.0 16.4 85 1.6 S 22 30 12 16 1015.7 1015.6 0.0
06/01:30pm 19.8 18.0 17.0 84 1.7 SSW 22 32 12 17 1015.8 1015.7 0.0
06/01:00pm 19.1 17.7 16.5 85 1.6 SSW 19 28 10 15 1015.9 1015.8 0.0
06/12:30pm 18.6 17.1 16.2 86 1.4 S 19 26 10 14 1015.9 1015.8 0.0
06/12:00pm 18.3 17.2 16.3 88 1.2 S 17 24 9 13 1016.2 1016.1 0.0
06/11:30am 18.0 16.8 16.2 89 1.1 S 17 24 9 13 1016.4 1016.3 0.0
06/11:00am 18.2 17.5 16.5 90 1.0 S 15 19 8 10 1016.7 1016.6 0.0
06/10:30am 17.9 17.1 16.2 90 1.0 S 15 19 8 10 1016.6 1016.5 0.0
06/10:00am 17.9 17.5 16.2 90 1.0 S 13 17 7 9 1016.6 1016.5 0.0
06/09:30am 17.6 17.2 16.1 91 0.9 S 13 19 7 10 1016.7 1016.6 0.0
06/09:00am 17.5 17.0 16.0 91 0.9 S 13 15 7 8 1016.5 1016.4 0.0
06/08:30am 17.6 17.6 16.3 92 0.8 SSE 11 19 6 10 1016.2 1016.1 0.0
06/08:00am 17.3 16.8 16.0 92 0.8 SSE 13 17 7 9 1016.2 1016.1 0.0
06/07:30am 17.4 17.3 16.1 92 0.8 SSE 11 13 6 7 1015.8 1015.7 0.0
06/07:00am 17.3 17.2 16.0 92 0.8 SSE 11 15 6 8 1015.6 1015.5 0.0
06/06:30am 17.4 17.3 16.1 92 0.8 SSE 11 17 6 9 1015.4 1015.3 0.0
06/06:00am 17.3 17.2 16.0 92 0.8 SSE 11 17 6 9 1015.2 1015.1 0.0
06/05:30am 17.4 16.6 16.1 92 0.8 SE 15 17 8 9 1015.1 1015.0 0.0
06/05:00am 17.3 16.8 16.0 92 0.8 SSE 13 17 7 9 1015.2 1015.1 0.0
06/04:30am 17.3 16.1 16.0 92 0.8 SSE 17 20 9 11 1015.2 1015.1 0.0
06/04:00am 17.4 16.2 16.1 92 0.8 SSE 17 22 9 12 1015.4 1015.3 0.0
06/03:30am 17.4 15.8 16.1 92 0.8 SSE 19 24 10 13 1015.5 1015.4 0.0
06/03:00am 17.3 15.6 15.8 91 0.9 SSE 19 24 10 13 1015.6 1015.5 0.0
06/02:30am 17.4 15.2 15.9 91 0.9 SSE 22 28 12 15 1016.2 1016.1 0.0
06/02:00am 17.4 15.2 15.9 91 0.9 SSE 22 28 12 15 1016.4 1016.3 0.0
06/01:30am 17.3 14.6 15.6 90 1.0 SSE 24 30 13 16 1016.8 1016.7 0.0
06/01:00am 17.3 14.9 15.5 89 1.1 SSE 22 28 12 15 1017.1 1017.0 0.0
06/12:30am 17.3 14.6 15.5 89 1.1 SSE 24 28 13 15 1017.3 1017.2 0.0
06/12:00am 17.3 14.5 15.3 88 1.2 SSE 24 30 13 16 1017.6 1017.5 0.0
 
Date/Time
CDT
Temp
°C
App
Temp
°C
Dew
Point
Rel
Hum
%
Delta-T
°C
Wind Press
QNH
hPa
Press
MSL
hPa
Rain
since 9 am
mm
Dir
 
Spd
km/h
Gust
km/h
Spd
kts
Gust
kts
05/11:30pm 17.4 14.2 15.4 88 1.2 SSE 26 32 14 17 1017.9 1017.8 0.0
05/11:00pm 17.2 14.0 15.2 88 1.2 SSE 26 33 14 18 1018.0 1017.9 0.0
05/10:30pm 17.2 13.4 14.8 86 1.4 SSE 28 37 15 20 1018.1 1018.0 0.0
05/10:00pm 17.3 13.5 14.8 85 1.4 SSE 28 37 15 20 1018.1 1018.0 0.0
05/09:30pm 17.1 13.7 14.7 86 1.4 SSE 26 37 14 20 1018.0 1017.9 0.0
05/09:00pm 17.3 14.0 14.9 86 1.4 SSE 26 33 14 18 1017.8 1017.7 0.0
05/08:30pm 17.3 13.5 14.8 85 1.4 SSE 28 37 15 20 1017.7 1017.6 0.0
05/08:00pm 17.2 12.6 14.5 84 1.6 S 32 37 17 20 1017.5 1017.4 0.0
05/07:30pm 17.5 13.2 14.4 82 1.8 SSE 30 39 16 21 1017.3 1017.2 0.0
05/07:00pm 17.5 13.1 14.0 80 2.0 SSE 30 37 16 20 1017.0 1016.9 0.0
05/06:30pm 17.6 13.5 13.9 79 2.1 SSE 28 37 15 20 1017.0 1016.9 0.0
05/06:00pm 17.7 14.0 14.0 79 2.1 SSE 26 33 14 18 1017.3 1017.2 0.0
05/05:30pm 17.9 14.3 14.2 79 2.1 SSE 26 32 14 17 1017.3 1017.2 0.0
05/05:00pm 17.6 13.7 13.3 76 2.4 SSE 26 32 14 17 1017.4 1017.3 0.0
05/04:30pm 17.6 13.3 13.3 76 2.4 SSE 28 33 15 18 1017.4 1017.3 0.0
05/04:00pm 17.4 13.4 12.9 75 2.5 SSE 26 30 14 16 1017.7 1017.6 0.0
05/03:30pm 17.4 12.9 12.7 74 2.6 SSE 28 33 15 18 1017.9 1017.8 0.0
05/03:00pm 17.3 13.0 13.2 77 2.3 SSE 28 37 15 20 1018.2 1018.1 0.0
05/02:30pm 17.1 13.0 12.8 76 2.4 SSE 26 37 14 20 1018.5 1018.4 0.0
05/02:00pm 17.1 12.8 12.2 73 2.7 SSE 26 35 14 19 1019.0 1018.9 0.0
05/01:30pm 16.9 12.6 12.0 73 2.7 SSE 26 33 14 18 1019.2 1019.1 0.0
05/01:00pm 17.0 12.5 12.5 75 2.5 SSE 28 35 15 19 1019.4 1019.3 0.0
05/12:30pm 17.6 12.6 12.1 70 3.0 SE 30 35 16 19 1019.6 1019.5 0.0
05/12:00pm 16.9 12.2 12.0 73 2.7 SE 28 35 15 19 1020.1 1019.9 0.0
05/11:30am 17.1 12.2 12.6 75 2.5 SE 30 35 16 19 1020.4 1020.2 0.0
05/11:00am 16.6 11.2 12.2 75 2.4 SE 32 39 17 21 1020.6 1020.4 0.0
05/10:30am 16.9 11.9 12.2 74 2.6 SE 30 37 16 20 1020.8 1020.6 0.0
05/10:00am 16.5 11.5 12.3 76 2.3 SE 30 39 16 21 1020.9 1020.7 0.0
05/09:30am 16.1 10.9 11.5 74 2.5 SE 30 37 16 20 1021.0 1020.8 0.0
05/09:00am 15.8 10.0 11.6 76 2.3 SE 33 43 18 23 1021.0 1020.8 0.0
05/08:30am 15.9 9.5 11.9 77 2.2 SE 37 43 20 23 1020.6 1020.4 0.0
05/08:00am 15.7 9.2 11.7 77 2.2 SE 37 46 20 25 1020.5 1020.3 0.0
05/07:30am 15.7 8.5 11.9 78 2.1 SE 41 50 22 27 1020.2 1020.0 0.0
05/07:00am 15.5 8.1 11.3 76 2.3 SE 41 50 22 27 1019.8 1019.7 0.0
05/06:30am 15.7 8.8 11.7 77 2.2 SE 39 46 21 25 1019.7 1019.6 0.0
05/06:00am 15.6 9.0 11.4 76 2.3 SE 37 46 20 25 1019.5 1019.4 0.0
05/05:30am 15.5 8.9 11.5 77 2.2 SE 37 52 20 28 1019.3 1019.2 0.0
05/05:00am 15.7 8.6 12.1 79 2.0 SE 41 50 22 27 1019.2 1019.1 0.0
05/04:30am 15.7 8.6 12.3 80 1.9 SE 41 48 22 26 1019.3 1019.2 0.0
05/04:00am 15.8 8.3 12.2 79 2.0 SE 43 50 23 27 1019.1 1019.0 0.0
05/03:30am 15.9 8.3 12.3 79 2.0 SE 44 52 24 28 1018.9 1018.8 0.0
05/03:00am 15.9 7.9 12.3 79 2.0 SE 46 57 25 31 1019.0 1018.9 0.0
05/02:30am 16.2 8.3 12.7 80 1.9 SE 46 56 25 30 1019.0 1018.9 0.0
05/02:00am 16.0 9.3 12.4 79 2.0 SSE 39 48 21 26 1019.6 1019.5 0.0
05/01:30am 15.9 9.1 11.9 77 2.2 SSE 39 52 21 28 1020.0 1019.8 0.0
05/01:00am 16.0 9.2 12.0 77 2.2 SSE 39 50 21 27 1020.0 1019.8 0.0
05/12:30am 16.1 8.5 11.9 76 2.3 SSE 43 52 23 28 1020.1 1019.9 0.0
05/12:00am 16.0 8.2 11.8 76 2.3 SSE 44 57 24 31 1020.0 1019.8 0.0
 
Date/Time
CDT
Temp
°C
App
Temp
°C
Dew
Point
Rel
Hum
%
Delta-T
°C
Wind Press
QNH
hPa
Press
MSL
hPa
Rain
since 9 am
mm
Dir
 
Spd
km/h
Gust
km/h
Spd
kts
Gust
kts
04/11:30pm 16.4 8.5 12.6 78 2.1 SSE 46 57 25 31 1020.1 1019.9 0.0
04/11:00pm 16.4 9.3 12.2 76 2.3 SSE 41 50 22 27 1020.3 1020.1 0.0
04/10:30pm 16.7 10.1 12.5 76 2.3 SSE 39 52 21 28 1020.3 1020.1 0.0
04/10:00pm 16.8 9.7 12.3 75 2.5 SSE 41 50 22 27 1020.3 1020.1 0.0
04/09:30pm 16.9 10.0 12.8 77 2.3 SSE 41 50 22 27 1020.2 1020.0 0.0
04/09:00pm 17.0 9.8 13.1 78 2.2 SSE 43 56 23 30 1020.2 1020.0 0.0
04/08:30pm 16.7 10.0 12.3 75 2.4 SSE 39 50 21 27 1019.7 1019.6 0.0
04/08:00pm 17.0 10.8 12.7 76 2.4 SSE 37 48 20 26 1020.1 1019.9 0.0
04/07:30pm 17.1 11.3 12.6 75 2.5 SSE 35 44 19 24 1020.0 1019.8 0.0
04/07:00pm 17.1 10.9 12.6 75 2.5 SSE 37 48 20 26 1019.8 1019.7 0.0
04/06:30pm 17.0 10.6 12.1 73 2.7 SSE 37 46 20 25 1019.6 1019.5 0.0
04/06:00pm 17.6 11.0 12.5 72 2.8 SSE 39 48 21 26 1019.7 1019.6 0.0
04/05:30pm 17.6 11.2 11.9 69 3.1 SSE 37 46 20 25 1019.7 1019.6 0.0
04/05:00pm 17.6 11.5 11.6 68 3.3 SSE 35 44 19 24 1020.1 1019.9 0.0
04/04:30pm 17.4 10.8 11.2 67 3.4 SSE 37 46 20 25 1020.1 1019.9 0.0
04/04:00pm 17.6 11.4 11.4 67 3.4 SSE 35 48 19 26 1020.3 1020.1 0.0
04/03:30pm 17.8 11.3 11.8 68 3.3 SSE 37 46 20 25 1020.5 1020.3 0.0
04/03:00pm 17.7 11.2 11.7 68 3.3 SSE 37 46 20 25 1020.6 1020.4 0.0
04/02:30pm 17.7 11.3 11.9 69 3.2 SSE 37 46 20 25 1021.0 1020.8 0.0
04/02:00pm 17.6 11.3 11.2 66 3.5 SSE 35 44 19 24 1021.4 1021.2 0.0
04/01:30pm 17.5 11.7 11.5 68 3.3 SSE 33 43 18 23 1021.7 1021.5 0.0
04/01:00pm 17.4 11.8 11.4 68 3.3 SSE 32 41 17 22 1021.9 1021.7 0.0
04/12:30pm 17.2 11.2 10.8 66 3.4 SSE 33 41 18 22 1022.1 1021.9 0.0
04/12:00pm 17.3 12.3 11.1 67 3.3 SSE 28 41 15 22 1022.3 1022.1 0.0
04/11:30am 17.2 10.3 10.3 64 3.7 SSE 37 46 20 25 1022.5 1022.3 0.0
04/11:00am 17.1 11.4 11.2 68 3.2 SSE 32 43 17 23 1022.4 1022.2 0.0
04/10:30am 16.9 11.1 10.7 67 3.3 SSE 32 44 17 24 1022.2 1022.0 0.0

Other Formats:

Comma delimited format used in spreadsheet applications
http://www.bom.gov.au/fwo/IDS60801/IDS60801.94822.axf

JavaScript Object Notation format (JSON) in row-major order
http://www.bom.gov.au/fwo/IDS60801/IDS60801.94822.json